sensor_id;sensor_type;location;lat;lon;timestamp;P1;durP1;ratioP1;P2;durP2;ratioP2
75810;SDS011;64449;50.016;19.954;2024-01-15T00:01:41;5.90;;;2.50;;
75810;SDS011;64449;50.016;19.954;2024-01-15T00:04:08;6.80;;;2.00;;
75810;SDS011;64449;50.016;19.954;2024-01-15T00:06:33;4.40;;;2.00;;
75810;SDS011;64449;50.016;19.954;2024-01-15T00:08:58;5.70;;;2.30;;
75810;SDS011;64449;50.016;19.954;2024-01-15T00:11:24;6.40;;;1.90;;
75810;SDS011;64449;50.016;19.954;2024-01-15T00:13:49;6.60;;;2.80;;
75810;SDS011;64449;50.016;19.954;2024-01-15T00:16:15;5.70;;;2.50;;
75810;SDS011;64449;50.016;19.954;2024-01-15T00:18:40;6.60;;;2.50;;
75810;SDS011;64449;50.016;19.954;2024-01-15T00:21:05;4.50;;;2.00;;
75810;SDS011;64449;50.016;19.954;2024-01-15T00:23:31;5.40;;;2.70;;
75810;SDS011;64449;50.016;19.954;2024-01-15T00:25:56;5.10;;;2.10;;
75810;SDS011;64449;50.016;19.954;2024-01-15T00:28:21;5.20;;;2.60;;
75810;SDS011;64449;50.016;19.954;2024-01-15T00:30:47;4.20;;;2.20;;
75810;SDS011;64449;50.016;19.954;2024-01-15T00:33:12;5.30;;;2.00;;
75810;SDS011;64449;50.016;19.954;2024-01-15T00:35:39;4.10;;;2.30;;
75810;SDS011;64449;50.016;19.954;2024-01-15T00:38:06;4.00;;;1.80;;
75810;SDS011;64449;50.016;19.954;2024-01-15T00:40:31;5.30;;;2.00;;
75810;SDS011;64449;50.016;19.954;2024-01-15T00:42:56;4.90;;;2.00;;
75810;SDS011;64449;50.016;19.954;2024-01-15T00:45:22;6.70;;;2.30;;
75810;SDS011;64449;50.016;19.954;2024-01-15T00:47:47;4.20;;;1.90;;
75810;SDS011;64449;50.016;19.954;2024-01-15T00:50:14;3.40;;;1.30;;
75810;SDS011;64449;50.016;19.954;2024-01-15T00:52:39;5.90;;;2.60;;
75810;SDS011;64449;50.016;19.954;2024-01-15T00:55:05;7.20;;;2.40;;
75810;SDS011;64449;50.016;19.954;2024-01-15T00:57:31;4.10;;;1.70;;
75810;SDS011;64449;50.016;19.954;2024-01-15T00:59:58;3.70;;;1.50;;
75810;SDS011;64449;50.016;19.954;2024-01-15T01:04:48;4.80;;;2.00;;
75810;SDS011;64449;50.016;19.954;2024-01-15T01:07:14;6.20;;;2.00;;
75810;SDS011;64449;50.016;19.954;2024-01-15T01:09:39;5.20;;;1.70;;
75810;SDS011;64449;50.016;19.954;2024-01-15T01:12:04;4.80;;;1.90;;
75810;SDS011;64449;50.016;19.954;2024-01-15T01:14:31;4.70;;;1.80;;
75810;SDS011;64449;50.016;19.954;2024-01-15T01:16:57;4.70;;;1.80;;
75810;SDS011;64449;50.016;19.954;2024-01-15T01:19:23;5.00;;;2.00;;
75810;SDS011;64449;50.016;19.954;2024-01-15T01:21:50;4.20;;;1.90;;
75810;SDS011;64449;50.016;19.954;2024-01-15T01:24:16;5.90;;;2.00;;
75810;SDS011;64449;50.016;19.954;2024-01-15T01:26:41;3.40;;;1.50;;
75810;SDS011;64449;50.016;19.954;2024-01-15T01:29:07;4.60;;;2.00;;
75810;SDS011;64449;50.016;19.954;2024-01-15T01:31:32;7.40;;;3.20;;
75810;SDS011;64449;50.016;19.954;2024-01-15T01:33:57;4.30;;;1.50;;
75810;SDS011;64449;50.016;19.954;2024-01-15T01:36:23;4.70;;;1.80;;
75810;SDS011;64449;50.016;19.954;2024-01-15T01:38:49;4.30;;;2.00;;
75810;SDS011;64449;50.016;19.954;2024-01-15T01:41:14;4.50;;;1.70;;
75810;SDS011;64449;50.016;19.954;2024-01-15T01:43:40;4.10;;;1.60;;
75810;SDS011;64449;50.016;19.954;2024-01-15T01:46:05;3.70;;;1.50;;
75810;SDS011;64449;50.016;19.954;2024-01-15T01:48:31;4.30;;;1.80;;
75810;SDS011;64449;50.016;19.954;2024-01-15T01:50:58;5.10;;;2.20;;
75810;SDS011;64449;50.016;19.954;2024-01-15T01:53:26;3.80;;;1.40;;
75810;SDS011;64449;50.016;19.954;2024-01-15T01:55:53;5.30;;;1.80;;
75810;SDS011;64449;50.016;19.954;2024-01-15T01:58:19;6.20;;;2.20;;
75810;SDS011;64449;50.016;19.954;2024-01-15T02:00:45;3.80;;;1.50;;
75810;SDS011;64449;50.016;19.954;2024-01-15T02:03:12;6.10;;;2.20;;
75810;SDS011;64449;50.016;19.954;2024-01-15T02:05:38;4.40;;;2.00;;
75810;SDS011;64449;50.016;19.954;2024-01-15T02:08:05;6.10;;;2.30;;
75810;SDS011;64449;50.016;19.954;2024-01-15T02:10:30;3.10;;;1.10;;
75810;SDS011;64449;50.016;19.954;2024-01-15T02:12:56;3.70;;;1.80;;
75810;SDS011;64449;50.016;19.954;2024-01-15T02:15:21;3.10;;;1.10;;
75810;SDS011;64449;50.016;19.954;2024-01-15T02:20:45;4.30;;;1.30;;
75810;SDS011;64449;50.016;19.954;2024-01-15T02:23:14;4.00;;;1.60;;
75810;SDS011;64449;50.016;19.954;2024-01-15T02:25:40;4.60;;;1.40;;
75810;SDS011;64449;50.016;19.954;2024-01-15T02:28:16;3.50;;;1.50;;
75810;SDS011;64449;50.016;19.954;2024-01-15T02:30:43;4.20;;;1.80;;
75810;SDS011;64449;50.016;19.954;2024-01-15T02:33:09;5.20;;;1.70;;
75810;SDS011;64449;50.016;19.954;2024-01-15T02:35:36;3.90;;;1.80;;
75810;SDS011;64449;50.016;19.954;2024-01-15T02:38:02;2.90;;;1.10;;
75810;SDS011;64449;50.016;19.954;2024-01-15T02:40:29;3.70;;;1.50;;
75810;SDS011;64449;50.016;19.954;2024-01-15T02:42:54;2.90;;;1.30;;
75810;SDS011;64449;50.016;19.954;2024-01-15T02:47:45;3.60;;;1.10;;
75810;SDS011;64449;50.016;19.954;2024-01-15T02:50:11;2.40;;;1.10;;
75810;SDS011;64449;50.016;19.954;2024-01-15T02:52:36;3.10;;;1.10;;
75810;SDS011;64449;50.016;19.954;2024-01-15T02:55:02;6.10;;;1.90;;
75810;SDS011;64449;50.016;19.954;2024-01-15T02:57:27;3.80;;;1.50;;
75810;SDS011;64449;50.016;19.954;2024-01-15T02:59:53;3.00;;;1.40;;
75810;SDS011;64449;50.016;19.954;2024-01-15T03:02:18;3.50;;;1.80;;
75810;SDS011;64449;50.016;19.954;2024-01-15T03:04:44;4.30;;;2.30;;
75810;SDS011;64449;50.016;19.954;2024-01-15T03:07:10;3.70;;;1.60;;
75810;SDS011;64449;50.016;19.954;2024-01-15T03:09:35;4.40;;;1.80;;
75810;SDS011;64449;50.016;19.954;2024-01-15T03:12:01;2.80;;;1.50;;
75810;SDS011;64449;50.016;19.954;2024-01-15T03:14:26;3.60;;;1.70;;
75810;SDS011;64449;50.016;19.954;2024-01-15T03:19:17;2.70;;;1.00;;
75810;SDS011;64449;50.016;19.954;2024-01-15T03:21:42;3.30;;;1.50;;
75810;SDS011;64449;50.016;19.954;2024-01-15T03:24:08;2.70;;;1.20;;
75810;SDS011;64449;50.016;19.954;2024-01-15T03:26:33;4.40;;;1.70;;
75810;SDS011;64449;50.016;19.954;2024-01-15T03:28:59;2.90;;;1.10;;
75810;SDS011;64449;50.016;19.954;2024-01-15T03:31:24;4.20;;;1.40;;
75810;SDS011;64449;50.016;19.954;2024-01-15T03:33:49;4.30;;;1.20;;
75810;SDS011;64449;50.016;19.954;2024-01-15T03:36:15;3.80;;;1.40;;
75810;SDS011;64449;50.016;19.954;2024-01-15T03:38:40;3.20;;;1.30;;
75810;SDS011;64449;50.016;19.954;2024-01-15T03:41:07;3.40;;;1.10;;
75810;SDS011;64449;50.016;19.954;2024-01-15T03:43:32;3.70;;;1.40;;
75810;SDS011;64449;50.016;19.954;2024-01-15T03:48:23;4.00;;;1.40;;
75810;SDS011;64449;50.016;19.954;2024-01-15T03:50:49;3.80;;;1.40;;
75810;SDS011;64449;50.016;19.954;2024-01-15T03:53:14;4.10;;;1.30;;
75810;SDS011;64449;50.016;19.954;2024-01-15T03:55:39;3.20;;;1.20;;
75810;SDS011;64449;50.016;19.954;2024-01-15T04:00:30;2.80;;;1.30;;
75810;SDS011;64449;50.016;19.954;2024-01-15T04:02:56;3.30;;;1.40;;
75810;SDS011;64449;50.016;19.954;2024-01-15T04:05:21;3.20;;;1.20;;
75810;SDS011;64449;50.016;19.954;2024-01-15T04:07:46;2.70;;;0.90;;
75810;SDS011;64449;50.016;19.954;2024-01-15T04:10:12;4.80;;;1.60;;
75810;SDS011;64449;50.016;19.954;2024-01-15T04:15:03;2.90;;;1.30;;
75810;SDS011;64449;50.016;19.954;2024-01-15T04:17:29;3.20;;;1.10;;
75810;SDS011;64449;50.016;19.954;2024-01-15T04:19:54;3.90;;;1.40;;
75810;SDS011;64449;50.016;19.954;2024-01-15T04:22:20;5.60;;;1.40;;
75810;SDS011;64449;50.016;19.954;2024-01-15T04:24:45;3.20;;;1.20;;
75810;SDS011;64449;50.016;19.954;2024-01-15T04:27:11;3.40;;;1.30;;
75810;SDS011;64449;50.016;19.954;2024-01-15T04:29:39;4.00;;;1.20;;
75810;SDS011;64449;50.016;19.954;2024-01-15T04:32:05;3.90;;;1.10;;
75810;SDS011;64449;50.016;19.954;2024-01-15T04:34:31;2.10;;;0.60;;
75810;SDS011;64449;50.016;19.954;2024-01-15T04:36:56;2.00;;;0.80;;
75810;SDS011;64449;50.016;19.954;2024-01-15T04:39:22;3.90;;;1.20;;
75810;SDS011;64449;50.016;19.954;2024-01-15T04:41:48;2.70;;;1.10;;
75810;SDS011;64449;50.016;19.954;2024-01-15T04:44:13;2.50;;;0.90;;
75810;SDS011;64449;50.016;19.954;2024-01-15T04:46:39;1.80;;;0.80;;
75810;SDS011;64449;50.016;19.954;2024-01-15T04:49:04;2.30;;;0.90;;
75810;SDS011;64449;50.016;19.954;2024-01-15T04:51:30;3.70;;;1.10;;
75810;SDS011;64449;50.016;19.954;2024-01-15T04:53:55;3.40;;;1.40;;
75810;SDS011;64449;50.016;19.954;2024-01-15T04:56:20;1.50;;;0.70;;
75810;SDS011;64449;50.016;19.954;2024-01-15T05:01:11;2.30;;;1.00;;
75810;SDS011;64449;50.016;19.954;2024-01-15T05:03:37;3.20;;;1.40;;
75810;SDS011;64449;50.016;19.954;2024-01-15T05:08:28;2.70;;;1.00;;
75810;SDS011;64449;50.016;19.954;2024-01-15T05:10:53;3.30;;;1.20;;
75810;SDS011;64449;50.016;19.954;2024-01-15T05:13:19;2.50;;;0.90;;
75810;SDS011;64449;50.016;19.954;2024-01-15T05:15:44;4.30;;;1.30;;
75810;SDS011;64449;50.016;19.954;2024-01-15T05:18:10;2.30;;;1.10;;
75810;SDS011;64449;50.016;19.954;2024-01-15T05:20:35;3.40;;;1.10;;
75810;SDS011;64449;50.016;19.954;2024-01-15T05:23:01;3.10;;;1.10;;
75810;SDS011;64449;50.016;19.954;2024-01-15T05:25:26;3.20;;;1.30;;
75810;SDS011;64449;50.016;19.954;2024-01-15T05:27:51;3.90;;;1.40;;
75810;SDS011;64449;50.016;19.954;2024-01-15T05:30:17;1.90;;;0.70;;
75810;SDS011;64449;50.016;19.954;2024-01-15T05:35:08;2.90;;;1.20;;
75810;SDS011;64449;50.016;19.954;2024-01-15T05:37:33;3.00;;;1.30;;
75810;SDS011;64449;50.016;19.954;2024-01-15T05:39:58;2.60;;;0.90;;
75810;SDS011;64449;50.016;19.954;2024-01-15T05:42:24;2.90;;;0.90;;
75810;SDS011;64449;50.016;19.954;2024-01-15T05:44:51;2.70;;;1.20;;
75810;SDS011;64449;50.016;19.954;2024-01-15T05:47:17;3.90;;;1.40;;
75810;SDS011;64449;50.016;19.954;2024-01-15T05:49:43;2.90;;;1.10;;
75810;SDS011;64449;50.016;19.954;2024-01-15T05:52:09;3.10;;;1.30;;
75810;SDS011;64449;50.016;19.954;2024-01-15T05:54:34;1.70;;;0.70;;
75810;SDS011;64449;50.016;19.954;2024-01-15T05:56:59;4.00;;;1.50;;
75810;SDS011;64449;50.016;19.954;2024-01-15T05:59:25;2.90;;;0.90;;
75810;SDS011;64449;50.016;19.954;2024-01-15T06:01:50;5.00;;;1.40;;
75810;SDS011;64449;50.016;19.954;2024-01-15T06:04:16;2.10;;;0.90;;
75810;SDS011;64449;50.016;19.954;2024-01-15T06:06:41;3.40;;;1.20;;
75810;SDS011;64449;50.016;19.954;2024-01-15T06:09:06;4.50;;;1.60;;
75810;SDS011;64449;50.016;19.954;2024-01-15T06:13:57;5.00;;;1.50;;
75810;SDS011;64449;50.016;19.954;2024-01-15T06:16:23;4.70;;;1.80;;
75810;SDS011;64449;50.016;19.954;2024-01-15T06:18:49;4.70;;;1.30;;
75810;SDS011;64449;50.016;19.954;2024-01-15T06:21:15;3.10;;;1.40;;
75810;SDS011;64449;50.016;19.954;2024-01-15T06:23:41;4.90;;;1.80;;
75810;SDS011;64449;50.016;19.954;2024-01-15T06:26:06;2.60;;;1.30;;
75810;SDS011;64449;50.016;19.954;2024-01-15T06:28:32;4.40;;;2.10;;
75810;SDS011;64449;50.016;19.954;2024-01-15T06:30:57;3.70;;;1.50;;
75810;SDS011;64449;50.016;19.954;2024-01-15T06:33:23;4.40;;;1.80;;
75810;SDS011;64449;50.016;19.954;2024-01-15T06:35:49;3.50;;;1.40;;
75810;SDS011;64449;50.016;19.954;2024-01-15T06:38:15;3.80;;;2.10;;
75810;SDS011;64449;50.016;19.954;2024-01-15T06:40:41;3.70;;;1.60;;
75810;SDS011;64449;50.016;19.954;2024-01-15T06:43:14;3.30;;;1.50;;
75810;SDS011;64449;50.016;19.954;2024-01-15T06:45:40;3.30;;;1.60;;
75810;SDS011;64449;50.016;19.954;2024-01-15T06:48:06;5.30;;;2.10;;
75810;SDS011;64449;50.016;19.954;2024-01-15T06:50:32;4.80;;;1.70;;
75810;SDS011;64449;50.016;19.954;2024-01-15T06:52:58;3.80;;;1.50;;
75810;SDS011;64449;50.016;19.954;2024-01-15T06:57:49;3.80;;;1.50;;
75810;SDS011;64449;50.016;19.954;2024-01-15T07:00:15;4.00;;;1.50;;
75810;SDS011;64449;50.016;19.954;2024-01-15T07:02:41;4.20;;;2.00;;
75810;SDS011;64449;50.016;19.954;2024-01-15T07:05:07;6.70;;;2.50;;
75810;SDS011;64449;50.016;19.954;2024-01-15T07:07:32;5.20;;;2.10;;
75810;SDS011;64449;50.016;19.954;2024-01-15T07:12:23;2.60;;;1.40;;
75810;SDS011;64449;50.016;19.954;2024-01-15T07:14:48;4.30;;;2.00;;
75810;SDS011;64449;50.016;19.954;2024-01-15T07:17:14;4.30;;;1.80;;
75810;SDS011;64449;50.016;19.954;2024-01-15T07:19:40;4.90;;;1.80;;
75810;SDS011;64449;50.016;19.954;2024-01-15T07:22:06;5.00;;;2.00;;
75810;SDS011;64449;50.016;19.954;2024-01-15T07:24:31;6.10;;;2.20;;
75810;SDS011;64449;50.016;19.954;2024-01-15T07:26:59;6.20;;;2.30;;
75810;SDS011;64449;50.016;19.954;2024-01-15T07:29:24;5.20;;;2.00;;
75810;SDS011;64449;50.016;19.954;2024-01-15T07:31:50;5.40;;;1.70;;
75810;SDS011;64449;50.016;19.954;2024-01-15T07:34:16;5.40;;;2.20;;
75810;SDS011;64449;50.016;19.954;2024-01-15T07:36:43;5.70;;;2.30;;
75810;SDS011;64449;50.016;19.954;2024-01-15T07:39:09;5.80;;;2.20;;
75810;SDS011;64449;50.016;19.954;2024-01-15T07:41:35;5.80;;;2.30;;
75810;SDS011;64449;50.016;19.954;2024-01-15T07:44:00;5.80;;;2.40;;
75810;SDS011;64449;50.016;19.954;2024-01-15T07:46:26;5.30;;;2.30;;
75810;SDS011;64449;50.016;19.954;2024-01-15T07:48:52;5.60;;;2.20;;
75810;SDS011;64449;50.016;19.954;2024-01-15T07:51:21;4.90;;;2.20;;
75810;SDS011;64449;50.016;19.954;2024-01-15T07:53:47;4.70;;;2.10;;
75810;SDS011;64449;50.016;19.954;2024-01-15T07:56:13;5.80;;;2.60;;
75810;SDS011;64449;50.016;19.954;2024-01-15T07:58:38;5.30;;;2.40;;
75810;SDS011;64449;50.016;19.954;2024-01-15T08:01:04;5.40;;;2.20;;
75810;SDS011;64449;50.016;19.954;2024-01-15T08:03:29;5.70;;;2.50;;
75810;SDS011;64449;50.016;19.954;2024-01-15T08:05:55;4.70;;;2.00;;
75810;SDS011;64449;50.016;19.954;2024-01-15T08:08:22;6.00;;;2.60;;
75810;SDS011;64449;50.016;19.954;2024-01-15T08:10:48;6.00;;;2.30;;
75810;SDS011;64449;50.016;19.954;2024-01-15T08:13:14;5.40;;;2.10;;
75810;SDS011;64449;50.016;19.954;2024-01-15T08:15:41;6.20;;;2.70;;
75810;SDS011;64449;50.016;19.954;2024-01-15T08:18:06;8.20;;;2.80;;
75810;SDS011;64449;50.016;19.954;2024-01-15T08:20:32;5.60;;;3.10;;
75810;SDS011;64449;50.016;19.954;2024-01-15T08:22:57;6.70;;;2.70;;
75810;SDS011;64449;50.016;19.954;2024-01-15T08:25:23;5.10;;;2.30;;
75810;SDS011;64449;50.016;19.954;2024-01-15T08:30:14;3.60;;;1.70;;
75810;SDS011;64449;50.016;19.954;2024-01-15T08:32:39;4.10;;;2.10;;
75810;SDS011;64449;50.016;19.954;2024-01-15T08:35:08;5.90;;;2.50;;
75810;SDS011;64449;50.016;19.954;2024-01-15T08:37:34;5.60;;;1.80;;
75810;SDS011;64449;50.016;19.954;2024-01-15T08:42:25;5.60;;;1.80;;
75810;SDS011;64449;50.016;19.954;2024-01-15T08:44:50;5.80;;;2.40;;
75810;SDS011;64449;50.016;19.954;2024-01-15T08:47:16;6.30;;;2.50;;
75810;SDS011;64449;50.016;19.954;2024-01-15T08:49:42;5.10;;;3.00;;
75810;SDS011;64449;50.016;19.954;2024-01-15T08:52:09;8.00;;;3.60;;
75810;SDS011;64449;50.016;19.954;2024-01-15T08:54:35;7.30;;;2.80;;
75810;SDS011;64449;50.016;19.954;2024-01-15T08:57:00;7.20;;;2.80;;
75810;SDS011;64449;50.016;19.954;2024-01-15T09:01:54;5.80;;;2.70;;
75810;SDS011;64449;50.016;19.954;2024-01-15T09:04:22;7.80;;;3.30;;
75810;SDS011;64449;50.016;19.954;2024-01-15T09:06:48;7.10;;;2.80;;
75810;SDS011;64449;50.016;19.954;2024-01-15T09:09:14;6.40;;;3.10;;
75810;SDS011;64449;50.016;19.954;2024-01-15T09:11:42;7.30;;;3.20;;
75810;SDS011;64449;50.016;19.954;2024-01-15T09:16:34;6.60;;;3.50;;
75810;SDS011;64449;50.016;19.954;2024-01-15T09:19:00;7.50;;;3.20;;
75810;SDS011;64449;50.016;19.954;2024-01-15T09:21:25;5.60;;;2.80;;
75810;SDS011;64449;50.016;19.954;2024-01-15T09:23:51;5.60;;;2.80;;
75810;SDS011;64449;50.016;19.954;2024-01-15T09:28:42;5.60;;;2.20;;
75810;SDS011;64449;50.016;19.954;2024-01-15T09:31:07;5.70;;;2.70;;
75810;SDS011;64449;50.016;19.954;2024-01-15T09:33:33;6.00;;;2.90;;
75810;SDS011;64449;50.016;19.954;2024-01-15T09:36:01;8.80;;;3.90;;
75810;SDS011;64449;50.016;19.954;2024-01-15T09:38:31;5.30;;;2.30;;
75810;SDS011;64449;50.016;19.954;2024-01-15T09:40:57;7.80;;;3.60;;
75810;SDS011;64449;50.016;19.954;2024-01-15T09:43:23;5.50;;;2.70;;
75810;SDS011;64449;50.016;19.954;2024-01-15T09:48:15;4.40;;;2.30;;
75810;SDS011;64449;50.016;19.954;2024-01-15T09:50:41;5.80;;;2.50;;
75810;SDS011;64449;50.016;19.954;2024-01-15T09:53:08;7.60;;;3.20;;
75810;SDS011;64449;50.016;19.954;2024-01-15T09:55:35;6.20;;;2.70;;
75810;SDS011;64449;50.016;19.954;2024-01-15T09:58:02;7.50;;;3.10;;
75810;SDS011;64449;50.016;19.954;2024-01-15T10:00:28;9.30;;;3.40;;
75810;SDS011;64449;50.016;19.954;2024-01-15T10:02:55;6.30;;;3.10;;
75810;SDS011;64449;50.016;19.954;2024-01-15T10:05:21;6.60;;;3.00;;
75810;SDS011;64449;50.016;19.954;2024-01-15T10:07:46;7.30;;;3.60;;
75810;SDS011;64449;50.016;19.954;2024-01-15T10:10:15;6.70;;;2.90;;
75810;SDS011;64449;50.016;19.954;2024-01-15T10:12:40;7.60;;;3.20;;
75810;SDS011;64449;50.016;19.954;2024-01-15T10:15:10;8.10;;;3.50;;
75810;SDS011;64449;50.016;19.954;2024-01-15T10:17:39;6.40;;;2.80;;
75810;SDS011;64449;50.016;19.954;2024-01-15T10:20:11;7.60;;;3.20;;
75810;SDS011;64449;50.016;19.954;2024-01-15T10:22:41;7.00;;;2.90;;
75810;SDS011;64449;50.016;19.954;2024-01-15T10:25:09;9.10;;;3.70;;
75810;SDS011;64449;50.016;19.954;2024-01-15T10:27:35;6.80;;;2.80;;
75810;SDS011;64449;50.016;19.954;2024-01-15T10:30:01;9.20;;;3.60;;
75810;SDS011;64449;50.016;19.954;2024-01-15T10:32:28;8.10;;;3.00;;
75810;SDS011;64449;50.016;19.954;2024-01-15T10:34:54;5.80;;;2.80;;
75810;SDS011;64449;50.016;19.954;2024-01-15T10:37:19;8.20;;;3.40;;
75810;SDS011;64449;50.016;19.954;2024-01-15T10:39:48;8.00;;;3.30;;
75810;SDS011;64449;50.016;19.954;2024-01-15T10:42:13;6.80;;;3.00;;
75810;SDS011;64449;50.016;19.954;2024-01-15T10:44:39;7.50;;;2.90;;
75810;SDS011;64449;50.016;19.954;2024-01-15T10:47:08;7.90;;;2.70;;
75810;SDS011;64449;50.016;19.954;2024-01-15T10:49:34;6.80;;;3.20;;
75810;SDS011;64449;50.016;19.954;2024-01-15T10:52:00;7.80;;;3.10;;
75810;SDS011;64449;50.016;19.954;2024-01-15T10:54:27;6.40;;;3.10;;
75810;SDS011;64449;50.016;19.954;2024-01-15T10:56:54;7.20;;;3.10;;
75810;SDS011;64449;50.016;19.954;2024-01-15T10:59:21;8.10;;;3.20;;
75810;SDS011;64449;50.016;19.954;2024-01-15T11:01:47;6.00;;;2.50;;
75810;SDS011;64449;50.016;19.954;2024-01-15T11:04:14;6.20;;;2.90;;
75810;SDS011;64449;50.016;19.954;2024-01-15T11:06:42;6.80;;;2.90;;
75810;SDS011;64449;50.016;19.954;2024-01-15T11:09:11;5.70;;;2.80;;
75810;SDS011;64449;50.016;19.954;2024-01-15T11:11:41;8.50;;;3.60;;
75810;SDS011;64449;50.016;19.954;2024-01-15T11:14:08;5.30;;;2.00;;
75810;SDS011;64449;50.016;19.954;2024-01-15T11:19:20;7.80;;;2.70;;
75810;SDS011;64449;50.016;19.954;2024-01-15T11:21:45;7.90;;;3.40;;
75810;SDS011;64449;50.016;19.954;2024-01-15T11:26:56;6.90;;;2.50;;
75810;SDS011;64449;50.016;19.954;2024-01-15T11:31:59;5.70;;;2.80;;
75810;SDS011;64449;50.016;19.954;2024-01-15T11:37:25;7.40;;;3.60;;
75810;SDS011;64449;50.016;19.954;2024-01-15T11:39:52;7.30;;;3.10;;
75810;SDS011;64449;50.016;19.954;2024-01-15T11:42:19;8.50;;;4.00;;
75810;SDS011;64449;50.016;19.954;2024-01-15T11:44:46;6.10;;;2.90;;
75810;SDS011;64449;50.016;19.954;2024-01-15T11:47:12;7.30;;;3.40;;
75810;SDS011;64449;50.016;19.954;2024-01-15T11:52:22;7.80;;;4.50;;
75810;SDS011;64449;50.016;19.954;2024-01-15T11:57:30;9.00;;;3.80;;
75810;SDS011;64449;50.016;19.954;2024-01-15T12:00:03;6.90;;;3.10;;
75810;SDS011;64449;50.016;19.954;2024-01-15T12:02:33;9.20;;;3.60;;
75810;SDS011;64449;50.016;19.954;2024-01-15T12:04:58;9.30;;;4.40;;
75810;SDS011;64449;50.016;19.954;2024-01-15T12:09:49;9.40;;;3.10;;
75810;SDS011;64449;50.016;19.954;2024-01-15T12:14:44;5.00;;;2.70;;
75810;SDS011;64449;50.016;19.954;2024-01-15T12:17:09;10.20;;;4.10;;
75810;SDS011;64449;50.016;19.954;2024-01-15T12:19:36;6.80;;;3.10;;
75810;SDS011;64449;50.016;19.954;2024-01-15T12:22:02;8.70;;;4.40;;
75810;SDS011;64449;50.016;19.954;2024-01-15T12:24:27;8.70;;;3.80;;
75810;SDS011;64449;50.016;19.954;2024-01-15T12:26:53;8.20;;;3.60;;
75810;SDS011;64449;50.016;19.954;2024-01-15T12:29:18;7.80;;;3.40;;
75810;SDS011;64449;50.016;19.954;2024-01-15T12:34:11;8.90;;;3.70;;
75810;SDS011;64449;50.016;19.954;2024-01-15T12:39:02;6.70;;;2.80;;
75810;SDS011;64449;50.016;19.954;2024-01-15T12:41:28;7.00;;;3.50;;
75810;SDS011;64449;50.016;19.954;2024-01-15T12:43:53;7.60;;;3.20;;
75810;SDS011;64449;50.016;19.954;2024-01-15T12:46:19;8.10;;;3.90;;
75810;SDS011;64449;50.016;19.954;2024-01-15T12:51:09;9.00;;;3.30;;
75810;SDS011;64449;50.016;19.954;2024-01-15T12:53:35;5.70;;;2.80;;
75810;SDS011;64449;50.016;19.954;2024-01-15T12:58:26;6.00;;;2.90;;
75810;SDS011;64449;50.016;19.954;2024-01-15T13:00:51;5.70;;;2.50;;
75810;SDS011;64449;50.016;19.954;2024-01-15T13:03:17;5.40;;;2.20;;
75810;SDS011;64449;50.016;19.954;2024-01-15T13:05:42;6.10;;;2.60;;
75810;SDS011;64449;50.016;19.954;2024-01-15T13:08:07;6.20;;;2.60;;
75810;SDS011;64449;50.016;19.954;2024-01-15T13:10:33;7.20;;;3.50;;
75810;SDS011;64449;50.016;19.954;2024-01-15T13:12:58;6.70;;;2.90;;
75810;SDS011;64449;50.016;19.954;2024-01-15T13:17:49;7.30;;;2.60;;
75810;SDS011;64449;50.016;19.954;2024-01-15T13:22:40;6.20;;;2.90;;
75810;SDS011;64449;50.016;19.954;2024-01-15T13:25:08;6.60;;;3.50;;
75810;SDS011;64449;50.016;19.954;2024-01-15T13:27:34;7.70;;;3.20;;
75810;SDS011;64449;50.016;19.954;2024-01-15T13:30:03;7.90;;;3.00;;
75810;SDS011;64449;50.016;19.954;2024-01-15T13:32:29;8.90;;;3.20;;
75810;SDS011;64449;50.016;19.954;2024-01-15T13:34:59;8.60;;;3.30;;
75810;SDS011;64449;50.016;19.954;2024-01-15T13:37:25;6.40;;;2.20;;
75810;SDS011;64449;50.016;19.954;2024-01-15T13:39:52;9.30;;;3.00;;
75810;SDS011;64449;50.016;19.954;2024-01-15T13:42:18;6.50;;;3.00;;
75810;SDS011;64449;50.016;19.954;2024-01-15T13:44:43;7.10;;;2.60;;
75810;SDS011;64449;50.016;19.954;2024-01-15T13:49:35;6.00;;;2.30;;
75810;SDS011;64449;50.016;19.954;2024-01-15T13:52:02;4.40;;;1.70;;
75810;SDS011;64449;50.016;19.954;2024-01-15T13:54:29;4.30;;;2.30;;
75810;SDS011;64449;50.016;19.954;2024-01-15T13:56:55;6.30;;;2.70;;
75810;SDS011;64449;50.016;19.954;2024-01-15T13:59:21;6.00;;;3.20;;
75810;SDS011;64449;50.016;19.954;2024-01-15T14:01:46;9.40;;;4.20;;
75810;SDS011;64449;50.016;19.954;2024-01-15T14:04:12;5.40;;;2.20;;
75810;SDS011;64449;50.016;19.954;2024-01-15T14:06:38;5.60;;;2.50;;
75810;SDS011;64449;50.016;19.954;2024-01-15T14:09:04;6.10;;;2.00;;
75810;SDS011;64449;50.016;19.954;2024-01-15T14:11:30;6.20;;;3.00;;
75810;SDS011;64449;50.016;19.954;2024-01-15T14:13:56;5.20;;;2.20;;
75810;SDS011;64449;50.016;19.954;2024-01-15T14:16:22;5.70;;;2.70;;
75810;SDS011;64449;50.016;19.954;2024-01-15T14:18:47;6.90;;;2.80;;
75810;SDS011;64449;50.016;19.954;2024-01-15T14:21:13;7.10;;;3.00;;
75810;SDS011;64449;50.016;19.954;2024-01-15T14:23:39;7.10;;;2.80;;
75810;SDS011;64449;50.016;19.954;2024-01-15T14:26:05;8.60;;;3.40;;
75810;SDS011;64449;50.016;19.954;2024-01-15T14:28:30;7.30;;;3.10;;
75810;SDS011;64449;50.016;19.954;2024-01-15T14:30:55;6.00;;;2.90;;
75810;SDS011;64449;50.016;19.954;2024-01-15T14:33:23;9.40;;;2.50;;
75810;SDS011;64449;50.016;19.954;2024-01-15T14:35:49;5.00;;;2.40;;
75810;SDS011;64449;50.016;19.954;2024-01-15T14:38:14;6.40;;;3.00;;
75810;SDS011;64449;50.016;19.954;2024-01-15T14:43:05;6.60;;;2.80;;
75810;SDS011;64449;50.016;19.954;2024-01-15T14:45:31;5.40;;;2.70;;
75810;SDS011;64449;50.016;19.954;2024-01-15T14:50:23;5.80;;;2.50;;
75810;SDS011;64449;50.016;19.954;2024-01-15T14:52:50;5.80;;;3.00;;
75810;SDS011;64449;50.016;19.954;2024-01-15T14:55:15;6.40;;;2.70;;
75810;SDS011;64449;50.016;19.954;2024-01-15T14:57:40;9.10;;;3.30;;
75810;SDS011;64449;50.016;19.954;2024-01-15T15:02:33;5.10;;;2.70;;
75810;SDS011;64449;50.016;19.954;2024-01-15T15:05:00;8.40;;;3.20;;
75810;SDS011;64449;50.016;19.954;2024-01-15T15:07:26;7.50;;;3.30;;
75810;SDS011;64449;50.016;19.954;2024-01-15T15:09:51;6.40;;;2.60;;
75810;SDS011;64449;50.016;19.954;2024-01-15T15:12:17;5.80;;;2.90;;
75810;SDS011;64449;50.016;19.954;2024-01-15T15:14:42;6.00;;;2.50;;
75810;SDS011;64449;50.016;19.954;2024-01-15T15:17:08;7.10;;;3.00;;
75810;SDS011;64449;50.016;19.954;2024-01-15T15:19:34;7.30;;;2.70;;
75810;SDS011;64449;50.016;19.954;2024-01-15T15:22:00;5.50;;;2.30;;
75810;SDS011;64449;50.016;19.954;2024-01-15T15:24:27;7.60;;;3.00;;
75810;SDS011;64449;50.016;19.954;2024-01-15T15:26:52;6.60;;;2.30;;
75810;SDS011;64449;50.016;19.954;2024-01-15T15:29:18;6.30;;;2.40;;
75810;SDS011;64449;50.016;19.954;2024-01-15T15:31:43;6.30;;;3.00;;
75810;SDS011;64449;50.016;19.954;2024-01-15T15:34:09;5.80;;;2.50;;
75810;SDS011;64449;50.016;19.954;2024-01-15T15:36:35;6.70;;;3.20;;
75810;SDS011;64449;50.016;19.954;2024-01-15T15:39:01;7.60;;;3.00;;
75810;SDS011;64449;50.016;19.954;2024-01-15T15:41:27;6.80;;;2.30;;
75810;SDS011;64449;50.016;19.954;2024-01-15T15:43:53;5.40;;;2.20;;
75810;SDS011;64449;50.016;19.954;2024-01-15T15:46:19;7.10;;;3.00;;
75810;SDS011;64449;50.016;19.954;2024-01-15T15:48:44;7.10;;;2.30;;
75810;SDS011;64449;50.016;19.954;2024-01-15T15:51:10;6.20;;;2.70;;
75810;SDS011;64449;50.016;19.954;2024-01-15T15:53:35;7.40;;;3.20;;
75810;SDS011;64449;50.016;19.954;2024-01-15T15:56:00;6.10;;;2.80;;
75810;SDS011;64449;50.016;19.954;2024-01-15T15:58:26;5.90;;;2.40;;